Airfield :
LOGIN :

Register | Disclaimer

   EN    FR    IT 

 










Legend :    VFR   Marginal VFR   IFR   Intensive IFR   Very Intensive IFR
Visi :
Ceiling :
>= 8 km
>= 3000ft
5 to 8 km
1000 to 3000 ft
1500m to 5 km
500 to 1000 ft
800 to 1500m
200 to 500 ft
< 800m
< 200 ft
Symbols :   Thunderstorms  Fog  Heavy snow  Heavy precipitations  Wind > 20 kt
SIGMETs :     Misc.  Thunderstorms  Icing  Turbulence  Mountain Waves  Volcanic Ashes







- Airport Elevation : 268 ft
- IATA code : BFS
- Download approach charts


EGAA - Belfast Aldergrove

CURRENT METAR :
  • 130150Z 12013G24KT 9999 BKN018 OVC024 06/03 Q1009

EXPIRED METARs :
  • 130120Z 12012KT 9999 BKN020 06/03 Q1009
  • 130050Z 12012G23KT 9999 BKN018 07/03 Q1009
  • 130020Z 12014G25KT 090V160 9999 BKN020 07/03 Q1009
  • 122350Z 12011G21KT 9999 BKN021 07/03 Q1009
  • 122320Z 12014G24KT 9999 -RA BKN022 07/03 Q1009

TAF TAF EGAA
Valid from the 13 at 00:00 until the 14 at 00:00 UTC


122258Z 1300/1324 13020G30KT 9999 FEW014 BKN022
TEMPO 1300/1312 BKN012
PROB30
TEMPO 1300/1311 7000 RA -RADZ
BECMG 1315/1318 13012KT CAVOK
No reported NOTAMs for that airfield.
1 SIGMET reported for the Scottish FIR (EGPX) :
 
Severe turbulence
EGPX SIGMET 02 VALID 122330/130330 EGRR
EGPX SCOTTISH FIR SEV TURB FCST SW OF LINE N5500 W00400 - N5900 W01000 SFC/FL060 STNR NC=



MET'MAP, your aeronautical weather chart ! - Copyright ORBIFLY December 2007 - Disclaimer

ORBIFLY MET'MAP TEAM :

Programming & Development : Alexandra Zaïnal
Concept & Development : Baudouin d'Aumeries
Co-Development & Prog : Marc-Olivier Méhu
Technical & hardware support : Manuel Goepfert

Contact : metmap@orbifly.com




SOURCES & CREDITS :

   NOAA